Latest Weather Observations for Lucinda

IDQ60801

Issued at 3:51 am EST Tuesday 13 November 2018 (issued every 10 minutes, with the page automatically refreshed every 10 minutes)

About weather observations | Map of weather stations | Latest weather observations for QLD | Other Formats
Station Details ID: 032141 Name: LUCINDA POINT Lat: -18.52 Lon: 146.39 Height: 10.0 m
Data from the previous 72 hours. | See also: Recent months at Lucinda
Date/Time
EST
Temp
°C
App
Temp
°C
Dew
Point
°C
Rel
Hum
%
Delta-T
°C
Wind Press
QNH
hPa
Press
MSL
hPa
Rain since
9am
mm
Dir  Spd
km/h
Gust
km/h
Spd
kts
Gust
kts
13/03:30am 25.3 24.9 18.0 64 4.6 ESE 17 28 9 15 1013.2 1013.1 0.0
13/03:00am 25.2 25.0 18.6 67 4.2 ESE 17 24 9 13 1013.1 1013.0 0.0
13/02:30am 25.4 24.5 18.3 65 4.5 ESE 20 30 11 16 1013.2 1013.1 0.0
13/02:00am 25.3 24.7 18.5 66 4.3 E 19 28 10 15 1013.4 1013.3 0.0
13/01:30am 25.4 25.3 18.8 67 4.2 E 17 24 9 13 1013.7 1013.6 0.0
13/01:00am 25.5 25.0 19.2 68 4.0 E 20 30 11 16 1014.0 1013.9 0.0
13/12:30am 25.7 24.7 19.6 69 3.9 ESE 24 37 13 20 1014.4 1014.3 0.0
13/12:00am 25.8 25.0 20.1 71 3.7 ESE 24 33 13 18 1014.7 1014.6 0.0
 
Date/Time
EST
Temp
°C
App
Temp
°C
Dew
Point
°C
Rel
Hum
%
Delta-T
°C
Wind Press
QNH
hPa
Press
MSL
hPa
Rain since
9am
mm
Dir  Spd
km/h
Gust
km/h
Spd
kts
Gust
kts
12/11:30pm 25.7 23.8 18.6 65 4.5 E 26 35 14 19 1014.8 1014.7 0.0
12/11:00pm 25.8 24.0 18.7 65 4.5 E 26 39 14 21 1015.0 1014.9 0.0
12/10:30pm 25.7 23.7 19.1 67 4.2 ESE 28 37 15 20 1015.1 1015.0 0.0
12/10:00pm 25.8 24.0 18.7 65 4.5 E 26 37 14 20 1015.0 1014.9 0.0
12/09:30pm 25.8 24.3 19.4 67 4.1 E 26 35 14 19 1014.8 1014.7 0.0
12/09:00pm 25.8 24.8 19.7 69 3.9 E 24 33 13 18 1014.4 1014.3 0.0
12/08:30pm 26.0 25.4 20.6 72 3.5 E 24 35 13 19 1014.3 1014.2 0.0
12/08:00pm 26.0 24.9 18.7 64 4.7 E 22 35 12 19 1014.2 1014.1 0.0
12/07:30pm 26.1 25.3 18.5 63 4.8 E 20 33 11 18 1014.1 1014.0 0.0
12/07:00pm 26.1 25.2 19.0 65 4.5 E 22 32 12 17 1013.8 1013.7 0.0
12/06:30pm 26.1 25.1 18.8 64 4.7 E 22 35 12 19 1013.4 1013.3 0.0
12/06:00pm 26.2 26.4 20.5 71 3.7 E 20 35 11 19 1013.3 1013.2 0.0
12/05:30pm 26.7 26.9 20.5 69 4.1 E 20 28 11 15 1012.9 1012.8 0.0
12/05:00pm 26.9 27.3 21.0 70 3.9 E 20 32 11 17 1012.8 1012.7 0.0
12/04:30pm 27.0 27.0 20.1 66 4.5 E 20 33 11 18 1012.5 1012.4 0.0
12/04:00pm 26.9 26.4 20.0 66 4.5 E 22 32 12 17 1012.6 1012.5 0.0
12/03:30pm 27.0 26.2 20.1 66 4.5 E 24 39 13 21 1012.6 1012.5 0.0
12/03:00pm 26.9 25.7 20.0 66 4.5 E 26 35 14 19 1012.7 1012.6 0.0
12/02:30pm 27.2 26.6 19.8 64 4.8 ESE 22 37 12 20 1012.9 1012.8 0.0
12/02:00pm 27.4 27.4 21.0 68 4.2 E 22 39 12 21 1013.2 1013.1 0.0
12/01:46pm 26.9 25.3 20.0 66 4.5 E 28 46 15 25 1013.3 1013.2 0.0
12/01:30pm 26.6 23.3 19.2 64 4.8 ESE 35 43 19 23 1013.6 1013.5 0.0
12/01:00pm 26.6 24.1 19.7 66 4.5 ESE 32 41 17 22 1014.1 1014.0 0.0
12/12:30pm 26.6 24.1 19.7 66 4.5 ESE 32 43 17 23 1014.4 1014.3 0.0
12/12:00pm 26.9 25.3 20.0 66 4.5 ESE 28 37 15 20 1014.8 1014.7 0.0
12/11:30am 26.9 25.2 19.8 65 4.6 ESE 28 37 15 20 1015.1 1015.0 0.0
12/11:00am 26.8 25.5 19.9 66 4.5 ESE 26 33 14 18 1015.4 1015.3 0.0
12/10:30am 26.6 25.5 19.5 65 4.6 ESE 24 37 13 20 1015.7 1015.6 0.0
12/10:00am 26.6 25.0 19.2 64 4.8 ESE 26 35 14 19 1015.8 1015.7 0.0
12/09:30am 26.4 25.6 19.3 65 4.6 ESE 22 35 12 19 1015.7 1015.6 0.0
12/09:00am 27.0 26.7 19.6 64 4.8 ESE 20 32 11 17 1015.7 1015.6 0.0
12/08:30am 26.9 26.9 19.8 65 4.6 SE 19 28 10 15 1015.5 1015.4 0.0
12/08:00am 26.4 26.4 19.8 67 4.3 ESE 19 30 10 16 1015.3 1015.2 0.0
12/07:30am 26.8 26.4 19.4 64 4.8 ESE 20 30 11 16 1015.1 1015.0 0.0
12/07:00am 26.2 26.0 19.3 65 4.4 ESE 19 33 10 18 1014.8 1014.7 0.0
12/06:30am 26.1 26.0 19.5 67 4.3 ESE 19 28 10 15 1014.5 1014.4 0.0
12/06:00am 25.7 25.8 20.0 71 3.7 ESE 19 32 10 17 1014.0 1013.9 0.0
12/05:30am 25.7 26.0 20.7 74 3.3 SE 20 35 11 19 1013.6 1013.5 0.0
12/05:00am 25.7 25.6 20.7 74 3.3 ESE 22 32 12 17 1013.3 1013.2 0.0
12/04:30am 25.7 24.8 20.7 74 3.3 ESE 26 37 14 20 1013.3 1013.2 0.0
12/04:00am 25.8 25.9 20.4 72 3.5 ESE 20 35 11 19 1013.2 1013.1 0.0
12/03:30am 25.7 25.2 20.0 71 3.7 ESE 22 39 12 21 1013.1 1013.0 0.0
12/03:00am 25.7 25.4 20.3 72 3.5 ESE 22 37 12 20 1013.0 1012.9 0.0
12/02:30am 25.6 25.7 20.4 73 3.4 SE 20 35 11 19 1012.9 1012.8 0.0
12/02:00am 25.8 26.1 20.8 74 3.3 ESE 20 41 11 22 1013.0 1012.9 0.0
12/01:30am 25.8 26.0 20.6 73 3.4 SE 20 41 11 22 1013.2 1013.1 0.0
12/01:00am 25.8 25.6 20.6 73 3.4 ESE 22 37 12 20 1013.5 1013.4 0.0
12/12:30am 25.9 26.3 20.9 74 3.3 ESE 20 35 11 19 1013.9 1013.8 0.0
12/12:00am 25.8 26.2 21.0 75 3.2 SE 20 35 11 19 1014.5 1014.4 0.0
 
Date/Time
EST
Temp
°C
App
Temp
°C
Dew
Point
°C
Rel
Hum
%
Delta-T
°C
Wind Press
QNH
hPa
Press
MSL
hPa
Rain since
9am
mm
Dir  Spd
km/h
Gust
km/h
Spd
kts
Gust
kts
11/11:30pm 25.9 26.7 21.3 76 3.0 ESE 19 35 10 19 1014.6 1014.5 0.0
11/11:00pm 25.8 26.7 20.8 74 3.3 SE 17 30 9 16 1014.8 1014.7 0.0
11/10:30pm 25.8 26.3 21.2 76 3.0 ESE 20 33 11 18 1014.8 1014.7 0.0
11/10:00pm 25.8 26.4 21.0 75 3.2 ESE 19 32 10 17 1014.6 1014.5 0.0
11/09:30pm 25.7 26.2 20.9 75 3.2 SE 19 32 10 17 1014.5 1014.4 0.0
11/09:00pm 25.6 25.8 20.6 74 3.3 SE 20 32 11 17 1014.2 1014.1 0.0
11/08:30pm 25.7 25.2 20.0 71 3.7 ESE 22 32 12 17 1014.0 1013.9 0.0
11/08:00pm 25.8 25.9 19.9 70 3.8 SE 19 30 10 16 1013.6 1013.5 0.0
11/07:30pm 25.8 26.2 19.9 70 3.8 ESE 17 26 9 14 1013.1 1013.0 0.0
11/07:00pm 25.9 25.4 18.6 64 4.6 ESE 19 26 10 14 1012.7 1012.6 0.0
11/06:30pm 26.1 25.9 18.5 63 4.8 ESE 17 24 9 13 1012.4 1012.3 0.0
11/06:00pm 26.6 26.3 18.2 60 5.3 ESE 17 22 9 12 1012.3 1012.2 0.0
11/05:30pm 26.6 25.9 18.7 62 5.0 ESE 20 28 11 15 1012.0 1011.9 0.0
11/05:00pm 26.8 27.6 19.9 66 4.5 SE 15 22 8 12 1011.8 1011.7 0.0
11/04:30pm 26.4 26.5 20.0 68 4.2 SE 19 26 10 14 1011.7 1011.6 0.0
11/04:00pm 26.8 27.0 20.2 67 4.3 ESE 19 30 10 16 1011.6 1011.5 0.0
11/03:30pm 26.6 25.1 19.5 65 4.6 ESE 26 32 14 17 1011.4 1011.3 0.0
11/03:00pm 26.4 26.3 20.0 68 4.2 SE 20 33 11 18 1011.6 1011.5 0.0
11/02:30pm 26.7 26.9 20.5 69 4.1 SE 20 35 11 19 1011.7 1011.6 0.0
11/02:00pm 26.0 26.0 20.1 70 3.8 SE 20 33 11 18 1011.9 1011.8 0.0
11/01:30pm 27.2 28.5 20.8 68 4.2 SE 15 28 8 15 1012.3 1012.2 0.0
11/01:00pm 26.7 27.1 19.8 66 4.5 SE 17 28 9 15 1012.5 1012.4 0.0
11/12:30pm 26.6 26.6 19.7 66 4.5 ESE 19 30 10 16 1012.9 1012.8 0.0
11/12:00pm 26.5 26.7 20.1 68 4.2 SE 19 30 10 16 1013.2 1013.1 0.0
11/11:30am 26.3 26.1 19.7 67 4.3 SE 20 32 11 17 1013.5 1013.4 0.0
11/11:00am 26.5 26.4 19.6 66 4.5 SE 19 33 10 18 1013.8 1013.7 0.0
11/10:30am 26.6 26.5 20.0 67 4.3 SE 20 32 11 17 1013.9 1013.8 0.0
11/10:00am 26.3 26.1 19.7 67 4.3 SE 20 33 11 18 1013.9 1013.8 0.0
11/09:30am 26.4 26.7 20.5 70 3.9 SE 19 30 10 16 1014.0 1013.9 0.0
11/09:00am 26.5 27.4 20.1 68 4.2 SSE 15 24 8 13 1014.0 1013.9 6.0
11/08:30am 26.7 27.0 20.3 68 4.2 SE 19 32 10 17 1013.7 1013.6 6.0
11/08:00am 26.5 27.0 20.1 68 4.2 SE 17 28 9 15 1013.3 1013.2 6.0
11/07:30am 26.5 27.0 20.8 71 3.8 SE 19 32 10 17 1013.1 1013.0 6.0
11/07:00am 26.4 27.1 21.2 73 3.4 ESE 19 28 10 15 1012.9 1012.8 6.0
11/06:30am 25.6 26.4 21.3 77 2.8 ESE 19 26 10 14 1012.7 1012.6 6.0
11/06:00am 24.9 25.5 21.4 81 2.3 ESE 20 30 11 16 1012.2 1012.1 5.8
11/05:30am 25.0 26.4 21.9 83 2.1 E 17 26 9 14 1012.1 1012.0 5.8
11/05:00am 23.7 24.4 23.7 100 0.0 ESE 26 37 14 20 1011.7 1011.6 5.8
11/04:30am 22.8 - - - - SE 20 32 11 17 1011.5 1011.4 5.4
11/04:05am 22.6 - - - - SE 28 46 15 25 1011.4 1011.3 3.8
11/04:00am 22.9 - - - - SE 26 43 14 23 1011.4 1011.3 2.0
11/03:30am 25.1 25.1 21.0 78 2.7 ESE 22 35 12 19 1011.0 1010.9 0.2
11/03:00am 25.1 24.6 21.4 80 2.5 ESE 26 43 14 23 1010.7 1010.6 0.2
11/02:58am 25.2 24.3 21.5 80 2.5 ESE 28 46 15 25 1010.7 1010.6 0.2
11/02:30am 25.3 24.1 21.6 80 2.5 ESE 30 44 16 24 1010.7 1010.6 0.2
11/02:00am 25.1 22.6 20.8 77 2.8 ESE 35 46 19 25 1011.0 1010.9 0.2
11/01:30am 25.4 24.3 21.7 80 2.5 ESE 30 44 16 24 1011.0 1010.9 0.2
11/01:00am 25.2 23.7 21.7 81 2.3 E 32 50 17 27 1011.5 1011.4 0.2
11/12:49am 25.6 25.1 22.1 81 2.3 ESE 28 46 15 25 1011.4 1011.3 0.2
11/12:30am 25.5 24.6 21.4 78 2.7 ESE 28 41 15 22 1011.7 1011.6 0.2
11/12:00am 25.5 24.0 21.8 80 2.5 ESE 32 43 17 23 1012.0 1011.9 0.2
 
Date/Time
EST
Temp
°C
App
Temp
°C
Dew
Point
°C
Rel
Hum
%
Delta-T
°C
Wind Press
QNH
hPa
Press
MSL
hPa
Rain since
9am
mm
Dir  Spd
km/h
Gust
km/h
Spd
kts
Gust
kts
10/11:30pm 25.4 24.1 22.1 82 2.2 ESE 32 44 17 24 1012.0 1011.9 0.0
10/11:20pm 25.4 24.9 22.1 82 2.2 ESE 28 46 15 25 1012.2 1012.1 0.0
10/11:00pm 25.7 25.2 22.2 81 2.3 SE 28 43 15 23 1012.5 1012.4 0.0
10/10:30pm 25.8 25.2 21.9 79 2.6 E 28 41 15 22 1012.8 1012.7 0.0
10/10:00pm 25.7 26.8 22.4 82 2.2 ESE 20 37 11 20 1012.6 1012.5 0.0
10/09:32pm 25.0 24.2 21.7 82 2.2 ESE 28 50 15 27 1012.2 1012.1 0.0
10/09:30pm 25.0 24.8 21.3 80 2.4 ESE 24 43 13 23 1012.3 1012.2 0.0
10/09:00pm 25.7 25.9 22.0 80 2.5 ESE 24 37 13 20 1012.1 1012.0 0.0
10/08:30pm 25.1 25.5 21.8 82 2.2 ESE 22 35 12 19 1011.9 1011.8 0.0
10/08:00pm 25.7 26.0 21.6 78 2.7 SE 22 39 12 21 1011.6 1011.5 0.0
10/07:30pm 26.0 26.5 21.9 78 2.7 ESE 22 39 12 21 1010.8 1010.7 0.0
10/07:00pm 25.9 25.1 21.6 77 2.9 ESE 28 41 15 22 1010.6 1010.5 0.0
10/06:30pm 25.8 25.0 21.7 78 2.7 ESE 28 35 15 19 1010.2 1010.1 0.0
10/06:00pm 26.1 25.3 22.4 80 2.5 ESE 30 43 16 23 1009.8 1009.7 0.0
10/05:30pm 26.7 26.7 21.7 74 3.3 ESE 24 41 13 22 1009.9 1009.8 0.0
10/05:00pm 27.2 27.7 21.2 69 4.0 ESE 20 33 11 18 1009.7 1009.6 0.0
10/04:30pm 27.2 27.9 21.2 69 4.0 ESE 19 30 10 16 1009.5 1009.4 0.0
10/04:00pm 27.1 28.2 21.2 70 3.9 SE 17 28 9 15 1009.6 1009.5 0.0
10/03:30pm 27.7 29.2 22.0 71 3.8 SE 17 26 9 14 1009.7 1009.6 0.0
10/03:00pm 28.0 29.4 21.1 66 4.6 ESE 15 26 8 14 1009.9 1009.8 0.0
10/02:30pm 27.9 29.3 21.0 66 4.6 ESE 15 28 8 15 1009.9 1009.8 0.0
10/02:00pm 27.7 28.2 20.8 66 4.6 ESE 19 26 10 14 1010.3 1010.2 0.0
10/01:30pm 27.2 27.5 20.8 68 4.2 ESE 20 28 11 15 1010.5 1010.4 0.0
10/01:00pm 27.7 29.3 21.5 69 4.1 SSE 15 22 8 12 1010.8 1010.7 0.0
10/12:30pm 27.7 29.1 21.0 67 4.4 ESE 15 26 8 14 1011.2 1011.1 0.0
10/12:00pm 27.4 28.8 21.0 68 4.2 SE 15 20 8 11 1011.6 1011.5 0.0
10/11:30am 27.5 28.8 20.8 67 4.4 ESE 15 24 8 13 1012.0 1011.9 0.0
10/11:00am 27.2 28.1 20.8 68 4.2 ESE 17 26 9 14 1012.3 1012.2 0.0
10/10:30am 27.4 28.4 21.0 68 4.2 ESE 17 26 9 14 1012.5 1012.4 0.0
10/10:00am 26.8 28.7 21.3 72 3.7 ESE 13 24 7 13 1012.6 1012.5 0.0
10/09:30am 27.2 29.3 21.7 72 3.7 SE 13 24 7 13 1012.8 1012.7 0.0
10/09:00am 27.6 29.0 21.9 71 3.8 ESE 17 24 9 13 1012.7 1012.6 -
10/08:30am 27.4 29.5 21.7 71 3.8 ESE 13 24 7 13 1012.8 1012.7 -
10/08:00am 26.4 28.0 21.4 74 3.3 ESE 15 24 8 13 1012.5 1012.4 -
10/07:30am 27.1 28.6 21.2 70 3.9 ESE 15 20 8 11 1012.2 1012.1 -
10/07:00am 26.4 28.3 21.4 74 3.3 ESE 13 19 7 10 1012.0 1011.9 -
10/06:30am 25.9 27.1 20.7 73 3.4 ESE 15 20 8 11 1011.7 1011.6 -
10/06:00am 25.8 27.3 21.2 76 3.0 ESE 15 30 8 16 1011.3 1011.2 -
10/05:30am 25.8 26.3 20.8 74 3.3 ESE 19 26 10 14 1011.1 1011.0 -
10/05:00am 25.7 26.2 20.9 75 3.2 ESE 19 30 10 16 1011.0 1010.9 -
10/04:30am 25.8 26.3 21.2 76 3.0 ESE 20 32 11 17 1010.8 1010.7 -
10/04:00am 25.9 26.1 21.3 76 3.0 ESE 22 32 12 17 1010.6 1010.5 -

Other Formats:

Comma delimited format used in spreadsheet applications
http://www.bom.gov.au/fwo/IDQ60801/IDQ60801.94295.axf

JavaScript Object Notation format (JSON) in row-major order
http://www.bom.gov.au/fwo/IDQ60801/IDQ60801.94295.json